createdAt,value
2023-06-28T00:01:41.922Z,44.89
2023-06-28T00:04:09.537Z,45.47
2023-06-28T00:06:37.215Z,45.45
2023-06-28T00:09:05.020Z,45.87
2023-06-28T00:11:32.596Z,46.04
2023-06-28T00:14:00.240Z,46.00
2023-06-28T00:16:27.959Z,46.14
2023-06-28T00:19:01.804Z,46.72
2023-06-28T00:21:29.666Z,47.18
2023-06-28T00:23:57.233Z,47.04
2023-06-28T00:26:24.889Z,46.60
2023-06-28T00:28:52.438Z,46.96
2023-06-28T00:31:20.161Z,46.75
2023-06-28T00:33:48.190Z,47.48
2023-06-28T00:36:17.173Z,47.83
2023-06-28T00:38:44.870Z,48.21
2023-06-28T00:41:12.469Z,47.42
2023-06-28T00:43:40.062Z,47.11
2023-06-28T00:46:07.604Z,47.21
2023-06-28T00:48:36.338Z,47.22
2023-06-28T00:51:05.521Z,47.96
2023-06-28T00:53:34.664Z,48.60
2023-06-28T00:56:02.398Z,51.25
2023-06-28T00:58:30.126Z,50.28
2023-06-28T01:00:58.031Z,49.51
2023-06-28T01:03:25.803Z,49.47
2023-06-28T01:05:54.136Z,49.36
2023-06-28T01:08:22.692Z,49.00
2023-06-28T01:10:52.287Z,48.47
2023-06-28T01:13:21.375Z,48.07
2023-06-28T01:15:49.005Z,49.22
2023-06-28T01:18:20.840Z,48.94
2023-06-28T01:20:48.702Z,49.01
2023-06-28T01:23:17.849Z,48.58
2023-06-28T01:25:45.668Z,48.22
2023-06-28T01:28:15.007Z,47.89
2023-06-28T01:30:43.001Z,47.97
2023-06-28T01:33:10.802Z,47.31
2023-06-28T01:35:38.453Z,47.41
2023-06-28T01:38:06.767Z,47.82
2023-06-28T01:40:37.228Z,47.75
2023-06-28T01:43:07.459Z,47.11
2023-06-28T01:45:35.622Z,46.66
2023-06-28T01:48:04.124Z,46.79
2023-06-28T01:50:32.144Z,47.01
2023-06-28T01:53:02.530Z,47.03
2023-06-28T01:55:30.278Z,47.97
2023-06-28T01:57:59.185Z,48.06
2023-06-28T02:00:27.142Z,47.94
2023-06-28T02:02:55.219Z,48.14
2023-06-28T02:05:23.440Z,48.50
2023-06-28T02:07:51.091Z,48.95
2023-06-28T02:10:19.211Z,49.43
2023-06-28T02:12:47.883Z,49.10
2023-06-28T02:15:16.986Z,48.96
2023-06-28T02:17:44.625Z,48.52
2023-06-28T02:20:13.634Z,48.79
2023-06-28T02:22:41.733Z,48.91
2023-06-28T02:25:10.145Z,49.13
2023-06-28T02:27:37.694Z,49.58
2023-06-28T02:30:06.125Z,49.80
2023-06-28T02:32:35.198Z,49.99
2023-06-28T02:35:02.808Z,50.34
2023-06-28T02:37:30.396Z,50.51
2023-06-28T02:39:58.611Z,50.59
2023-06-28T02:42:26.177Z,50.54
2023-06-28T02:44:53.737Z,49.59
2023-06-28T02:47:21.396Z,49.62
2023-06-28T02:49:50.386Z,49.78
2023-06-28T02:52:17.930Z,49.27
2023-06-28T02:54:45.574Z,49.62
2023-06-28T02:57:13.111Z,49.53
2023-06-28T02:59:40.669Z,49.59
2023-06-28T03:02:10.741Z,49.68
2023-06-28T03:04:40.779Z,49.54
2023-06-28T03:07:14.442Z,49.67
2023-06-28T03:09:42.171Z,50.08
2023-06-28T03:12:11.281Z,50.16
2023-06-28T03:14:39.110Z,50.15
2023-06-28T03:17:07.404Z,49.99
2023-06-28T03:19:36.065Z,49.84
2023-06-28T03:22:04.089Z,49.82
2023-06-28T03:24:33.382Z,50.61
2023-06-28T03:27:00.939Z,51.25
2023-06-28T03:29:28.543Z,50.67
2023-06-28T03:31:57.098Z,50.36
2023-06-28T03:34:24.732Z,50.01
2023-06-28T03:37:02.718Z,50.63
2023-06-28T03:39:33.136Z,51.12
2023-06-28T03:42:00.704Z,51.16
2023-06-28T03:44:28.269Z,52.23
2023-06-28T03:46:55.888Z,51.97
2023-06-28T03:49:23.470Z,51.61
2023-06-28T03:51:51.168Z,51.12
2023-06-28T03:54:21.507Z,51.30
2023-06-28T03:56:50.971Z,51.03
2023-06-28T03:59:18.639Z,51.14
2023-06-28T04:01:48.403Z,50.98
2023-06-28T04:04:16.604Z,51.21
2023-06-28T04:06:44.265Z,51.29
2023-06-28T04:09:11.903Z,52.63
2023-06-28T04:11:39.433Z,51.86
2023-06-28T04:14:08.402Z,51.62
2023-06-28T04:16:35.938Z,50.86
2023-06-28T04:19:03.517Z,50.24
2023-06-28T04:21:31.174Z,49.95
2023-06-28T04:23:58.735Z,49.74
2023-06-28T04:26:26.349Z,49.54
2023-06-28T04:28:53.993Z,50.09
2023-06-28T04:31:23.208Z,50.37
2023-06-28T04:33:50.791Z,50.47
2023-06-28T04:36:22.412Z,50.90
2023-06-28T04:38:53.513Z,51.42
2023-06-28T04:41:21.398Z,51.56
2023-06-28T04:43:49.065Z,51.01
2023-06-28T04:46:17.065Z,51.13
2023-06-28T04:48:46.127Z,51.50
2023-06-28T04:51:13.660Z,51.73
2023-06-28T04:53:41.206Z,51.90
2023-06-28T04:56:08.886Z,51.73
2023-06-28T04:58:38.490Z,51.27
2023-06-28T05:01:08.959Z,50.57
2023-06-28T05:03:39.774Z,50.35
2023-06-28T05:06:11.477Z,50.37
2023-06-28T05:08:39.022Z,49.94
2023-06-28T05:11:08.485Z,49.37
2023-06-28T05:13:36.058Z,49.30
2023-06-28T05:16:03.774Z,49.56
2023-06-28T05:18:31.346Z,49.83
2023-06-28T05:20:58.931Z,49.83
2023-06-28T05:23:27.836Z,50.22
2023-06-28T05:25:55.486Z,50.49
2023-06-28T05:28:25.369Z,50.83
2023-06-28T05:30:52.979Z,50.06
2023-06-28T05:33:20.611Z,49.53
2023-06-28T05:35:49.963Z,49.19
2023-06-28T05:38:17.521Z,48.99
2023-06-28T05:40:46.450Z,48.46
2023-06-28T05:43:13.999Z,48.27
2023-06-28T05:45:41.539Z,48.22
2023-06-28T05:48:09.341Z,48.59
2023-06-28T05:50:40.219Z,48.79
2023-06-28T05:53:08.670Z,49.61
2023-06-28T05:55:36.277Z,49.86
2023-06-28T05:58:05.295Z,49.74
2023-06-28T06:00:32.890Z,49.80
2023-06-28T06:03:00.608Z,50.00
2023-06-28T06:05:28.195Z,50.23
2023-06-28T06:07:55.811Z,50.46
2023-06-28T06:10:23.437Z,50.38
2023-06-28T06:12:52.906Z,50.08
2023-06-28T06:15:22.169Z,49.72
2023-06-28T06:17:49.896Z,50.87
2023-06-28T06:20:17.642Z,50.93
2023-06-28T06:22:45.881Z,51.19
2023-06-28T06:25:13.434Z,51.39
2023-06-28T06:27:41.009Z,51.22
2023-06-28T06:30:11.433Z,51.68
2023-06-28T06:32:40.444Z,51.63
2023-06-28T06:35:08.796Z,52.16
2023-06-28T06:37:36.394Z,51.05
2023-06-28T06:40:04.234Z,51.01
2023-06-28T06:42:31.801Z,51.02
2023-06-28T06:44:59.372Z,51.21
2023-06-28T06:47:27.000Z,51.08
2023-06-28T06:49:55.999Z,50.88
2023-06-28T06:52:23.569Z,49.72
2023-06-28T06:54:51.121Z,49.48
2023-06-28T06:57:18.809Z,49.34
2023-06-28T06:59:46.443Z,48.90
2023-06-28T07:02:13.970Z,48.46
2023-06-28T07:04:41.535Z,48.89
2023-06-28T07:07:10.481Z,48.84
2023-06-28T07:09:38.095Z,48.54
2023-06-28T07:12:06.741Z,47.80
2023-06-28T07:14:34.391Z,47.45
2023-06-28T07:17:02.020Z,46.90
2023-06-28T07:19:29.789Z,46.92
2023-06-28T07:21:57.343Z,46.64
2023-06-28T07:24:26.387Z,46.28
2023-06-28T07:26:53.924Z,45.71
2023-06-28T07:29:21.743Z,45.03
2023-06-28T07:31:49.355Z,44.08
2023-06-28T07:34:16.910Z,43.87
2023-06-28T07:36:44.438Z,44.00
2023-06-28T07:39:12.449Z,44.33
2023-06-28T07:41:41.296Z,44.58
2023-06-28T07:44:08.849Z,43.78
2023-06-28T07:46:36.490Z,43.46
2023-06-28T07:49:04.412Z,43.13
2023-06-28T07:51:32.053Z,42.60
2023-06-28T07:53:59.689Z,42.57
2023-06-28T07:56:27.247Z,42.98
2023-06-28T07:58:58.550Z,42.71
2023-06-28T08:01:26.127Z,42.91
2023-06-28T08:03:54.350Z,42.75
2023-06-28T08:06:21.985Z,42.12
2023-06-28T08:08:49.731Z,40.83
2023-06-28T08:11:17.308Z,40.97
2023-06-28T08:13:44.971Z,40.04
2023-06-28T08:16:15.073Z,40.17
2023-06-28T08:18:42.670Z,39.98
2023-06-28T08:21:10.272Z,39.65
2023-06-28T08:23:37.923Z,40.03
2023-06-28T08:26:05.519Z,39.75
2023-06-28T08:28:40.886Z,38.95
2023-06-28T08:31:19.361Z,39.94
2023-06-28T08:33:48.747Z,39.66
2023-06-28T08:36:16.491Z,40.41
2023-06-28T08:38:44.115Z,40.22
2023-06-28T08:41:12.151Z,40.53
2023-06-28T08:43:41.510Z,39.90
2023-06-28T08:46:09.241Z,39.89
2023-06-28T08:48:39.594Z,39.61
2023-06-28T08:51:07.655Z,39.18
2023-06-28T08:53:36.537Z,39.79
2023-06-28T08:56:05.628Z,39.06
2023-06-28T08:58:34.505Z,38.85
2023-06-28T09:01:02.532Z,39.41
2023-06-28T09:03:32.242Z,38.88
2023-06-28T09:06:01.684Z,38.65
2023-06-28T09:08:29.698Z,38.83
2023-06-28T09:10:57.528Z,38.54
2023-06-28T09:13:25.572Z,37.63
2023-06-28T09:15:55.294Z,37.27
2023-06-28T09:18:23.165Z,37.63
2023-06-28T09:20:51.914Z,36.00
2023-06-28T09:23:26.191Z,35.21
2023-06-28T09:25:54.164Z,36.06
2023-06-28T09:28:24.568Z,35.04
2023-06-28T09:30:55.947Z,34.64
2023-06-28T09:33:23.772Z,35.29
2023-06-28T09:35:54.808Z,34.93
2023-06-28T09:38:22.618Z,35.71
2023-06-28T09:40:56.314Z,35.19
2023-06-28T09:43:24.132Z,34.34
2023-06-28T09:45:54.753Z,34.33
2023-06-28T09:48:25.700Z,33.80
2023-06-28T09:50:53.289Z,32.63
2023-06-28T09:53:22.856Z,33.05
2023-06-28T09:55:52.424Z,33.29
2023-06-28T09:58:22.895Z,33.54
2023-06-28T10:00:51.871Z,32.50
2023-06-28T10:03:23.957Z,33.88
2023-06-28T10:05:55.470Z,32.35
2023-06-28T10:08:23.136Z,31.57
2023-06-28T10:10:56.722Z,30.68
2023-06-28T10:13:27.929Z,29.43
2023-06-28T10:16:00.611Z,29.86
2023-06-28T10:18:28.291Z,29.90
2023-06-28T10:20:57.110Z,29.97
2023-06-28T10:23:26.487Z,30.60
2023-06-28T10:25:56.638Z,30.99
2023-06-28T10:28:28.698Z,32.03
2023-06-28T10:30:56.367Z,32.23
2023-06-28T10:33:25.084Z,31.91
2023-06-28T10:35:54.449Z,31.57
2023-06-28T10:38:22.022Z,31.57
2023-06-28T10:40:49.781Z,30.50
2023-06-28T10:43:26.288Z,30.25
2023-06-28T10:45:54.416Z,30.20
2023-06-28T10:48:22.586Z,30.36
2023-06-28T10:50:51.773Z,29.99
2023-06-28T10:53:23.793Z,31.55
2023-06-28T10:56:12.225Z,32.28
2023-06-28T10:58:42.438Z,32.79
2023-06-28T11:01:11.457Z,32.30
2023-06-28T11:03:40.842Z,31.96
2023-06-28T11:06:09.601Z,31.61
2023-06-28T11:08:40.162Z,31.49
2023-06-28T11:11:09.146Z,32.12
2023-06-28T11:13:49.518Z,32.54
2023-06-28T11:16:22.292Z,30.20
2023-06-28T11:18:51.033Z,29.78
2023-06-28T11:21:19.869Z,29.26
2023-06-28T11:23:48.312Z,29.14
2023-06-28T11:26:18.010Z,29.50
2023-06-28T11:28:51.784Z,29.24
2023-06-28T11:31:25.707Z,29.07
2023-06-28T11:33:55.949Z,29.62
2023-06-28T11:36:26.317Z,28.62
2023-06-28T11:38:54.385Z,28.37
2023-06-28T11:41:21.972Z,29.24
2023-06-28T11:43:51.321Z,30.36
2023-06-28T11:46:20.078Z,29.66
2023-06-28T11:48:49.810Z,28.24
2023-06-28T11:51:18.279Z,27.87
2023-06-28T11:53:50.064Z,27.73
2023-06-28T11:56:17.697Z,27.98
2023-06-28T11:58:45.316Z,27.46
2023-06-28T12:01:23.194Z,27.01
2023-06-28T12:03:50.939Z,26.71
2023-06-28T12:06:18.645Z,26.74
2023-06-28T12:08:46.337Z,26.51
2023-06-28T12:11:15.668Z,27.58
2023-06-28T12:13:44.021Z,26.56
2023-06-28T12:16:15.865Z,25.84
2023-06-28T12:19:01.451Z,24.71
2023-06-28T12:21:30.752Z,25.32
2023-06-28T12:24:13.989Z,25.47
2023-06-28T12:26:41.708Z,25.13
2023-06-28T12:29:09.619Z,25.15
2023-06-28T12:31:46.872Z,24.78
2023-06-28T12:34:16.377Z,24.22
2023-06-28T12:36:43.969Z,24.28
2023-06-28T12:39:22.283Z,24.17
2023-06-28T12:42:01.985Z,24.58
2023-06-28T12:44:29.612Z,24.53
2023-06-28T12:46:57.611Z,24.13
2023-06-28T12:49:37.808Z,24.08
2023-06-28T12:52:06.143Z,23.72
2023-06-28T12:54:33.730Z,23.56
2023-06-28T12:57:01.437Z,23.42
2023-06-28T12:59:29.276Z,23.30
2023-06-28T13:01:56.893Z,23.39
2023-06-28T13:04:28.526Z,22.95
2023-06-28T13:06:56.154Z,22.65
2023-06-28T13:09:23.798Z,22.96
2023-06-28T13:11:51.505Z,23.83
2023-06-28T13:14:21.269Z,23.36
2023-06-28T13:16:49.641Z,23.74
2023-06-28T13:19:17.299Z,23.34
2023-06-28T13:21:47.715Z,22.96
2023-06-28T13:24:15.270Z,23.11
2023-06-28T13:26:42.887Z,24.42
2023-06-28T13:29:10.558Z,23.46
2023-06-28T13:31:38.184Z,22.63
2023-06-28T13:34:05.867Z,22.00
2023-06-28T13:36:33.417Z,21.55
2023-06-28T13:39:02.308Z,21.04
2023-06-28T13:41:31.633Z,19.94
2023-06-28T13:44:01.196Z,20.87
2023-06-28T13:46:28.939Z,20.65
2023-06-28T13:48:56.550Z,20.83
2023-06-28T13:51:24.213Z,20.48
2023-06-28T13:53:52.079Z,20.19
2023-06-28T13:56:21.051Z,20.67
2023-06-28T13:58:48.688Z,20.49
2023-06-28T14:01:16.309Z,20.54
2023-06-28T14:03:43.946Z,20.72
2023-06-28T14:06:11.584Z,20.60
2023-06-28T14:08:39.244Z,20.63
2023-06-28T14:11:06.923Z,19.87
2023-06-28T14:13:36.018Z,20.55
2023-06-28T14:16:03.663Z,20.59
2023-06-28T14:18:31.258Z,19.93
2023-06-28T14:20:58.818Z,18.96
2023-06-28T14:23:26.421Z,19.38
2023-06-28T14:25:54.018Z,19.66
2023-06-28T14:28:22.218Z,19.39
2023-06-28T14:30:51.427Z,19.12
2023-06-28T14:33:19.013Z,19.33
2023-06-28T14:35:46.575Z,19.17
2023-06-28T14:38:14.130Z,19.13
2023-06-28T14:40:41.759Z,19.11
2023-06-28T14:43:09.325Z,19.21
2023-06-28T14:45:36.854Z,18.94
2023-06-28T14:48:06.729Z,19.30
2023-06-28T14:50:34.310Z,19.59
2023-06-28T14:53:01.899Z,18.94
2023-06-28T14:55:29.491Z,18.74
2023-06-28T14:57:57.142Z,19.84
2023-06-28T15:00:24.714Z,20.07
2023-06-28T15:02:52.285Z,20.57
2023-06-28T15:05:21.280Z,21.29
2023-06-28T15:07:48.866Z,21.59
2023-06-28T15:10:16.546Z,21.25
2023-06-28T15:12:44.102Z,20.44
2023-06-28T15:15:12.051Z,20.05
2023-06-28T15:17:39.679Z,20.09
2023-06-28T15:20:08.127Z,19.65
2023-06-28T15:22:37.816Z,19.54
2023-06-28T15:25:06.969Z,19.24
2023-06-28T15:27:38.718Z,19.59
2023-06-28T15:30:07.807Z,19.68
2023-06-28T15:32:36.638Z,19.74
2023-06-28T15:35:07.238Z,20.30
2023-06-28T15:37:34.800Z,20.38
2023-06-28T15:40:03.690Z,20.72
2023-06-28T15:42:31.374Z,20.46
2023-06-28T15:44:58.987Z,20.61
2023-06-28T15:47:26.563Z,20.41
2023-06-28T15:49:54.196Z,21.74
2023-06-28T15:52:21.861Z,23.96
2023-06-28T15:54:50.759Z,24.46
2023-06-28T15:57:19.770Z,24.57
2023-06-28T15:59:47.316Z,24.64
2023-06-28T16:02:15.086Z,23.90
2023-06-28T16:04:42.824Z,23.52
2023-06-28T16:07:10.467Z,22.78
2023-06-28T16:09:38.058Z,23.54
2023-06-28T16:12:06.620Z,24.65
2023-06-28T16:14:35.506Z,24.44
2023-06-28T16:17:04.330Z,24.62
2023-06-28T16:19:32.002Z,23.87
2023-06-28T16:22:00.043Z,24.32
2023-06-28T16:24:28.686Z,23.77
2023-06-28T16:26:56.275Z,23.13
2023-06-28T16:29:24.172Z,22.24
2023-06-28T16:31:53.244Z,21.70
2023-06-28T16:34:20.954Z,22.14
2023-06-28T16:36:48.595Z,22.36
2023-06-28T16:39:16.300Z,22.52
2023-06-28T16:41:43.896Z,22.39
2023-06-28T16:44:11.517Z,22.60
2023-06-28T16:46:39.102Z,22.92
2023-06-28T16:49:08.028Z,22.79
2023-06-28T16:51:35.618Z,24.10
2023-06-28T16:54:03.209Z,25.16
2023-06-28T16:56:30.819Z,25.88
2023-06-28T16:58:58.744Z,25.65
2023-06-28T17:01:26.492Z,25.33
2023-06-28T17:03:55.267Z,25.44
2023-06-28T17:06:24.194Z,25.07
2023-06-28T17:08:51.853Z,24.20
2023-06-28T17:11:19.893Z,23.95
2023-06-28T17:13:47.452Z,23.68
2023-06-28T17:16:15.023Z,22.87
2023-06-28T17:18:42.629Z,22.44
2023-06-28T17:21:10.221Z,22.26
2023-06-28T17:23:39.164Z,22.32
2023-06-28T17:26:06.805Z,22.17
2023-06-28T17:28:34.365Z,22.73
2023-06-28T17:31:01.966Z,23.42
2023-06-28T17:33:29.554Z,23.10
2023-06-28T17:35:57.166Z,23.04
2023-06-28T17:38:24.726Z,23.50
2023-06-28T17:40:53.687Z,23.43
2023-06-28T17:43:21.228Z,23.84
2023-06-28T17:45:48.777Z,25.16
2023-06-28T17:48:16.483Z,26.27
2023-06-28T17:50:44.219Z,26.94
2023-06-28T17:53:11.869Z,26.98
2023-06-28T17:55:39.515Z,27.46
2023-06-28T17:58:08.554Z,27.87
2023-06-28T18:00:36.555Z,28.21
2023-06-28T18:03:05.804Z,28.80
2023-06-28T18:05:34.362Z,29.21
2023-06-28T18:08:03.649Z,29.93
2023-06-28T18:10:31.472Z,30.42
2023-06-28T18:12:59.539Z,31.07
2023-06-28T18:15:28.430Z,31.18
2023-06-28T18:17:56.150Z,31.96
2023-06-28T18:20:23.880Z,31.77
2023-06-28T18:22:51.503Z,31.63
2023-06-28T18:25:19.096Z,31.49
2023-06-28T18:27:46.692Z,31.67
2023-06-28T18:30:14.718Z,32.34
2023-06-28T18:32:43.673Z,32.51
2023-06-28T18:35:11.260Z,32.77
2023-06-28T18:37:38.842Z,33.07
2023-06-28T18:40:07.547Z,33.23
2023-06-28T18:42:35.100Z,33.70
2023-06-28T18:45:03.888Z,33.39
2023-06-28T18:47:33.091Z,34.63
2023-06-28T18:50:02.078Z,35.37
2023-06-28T18:52:29.715Z,35.06
2023-06-28T18:54:57.280Z,35.41
2023-06-28T18:57:25.268Z,35.48
2023-06-28T18:59:52.899Z,36.06
2023-06-28T19:02:21.173Z,36.16
2023-06-28T19:04:48.769Z,35.70
2023-06-28T19:07:18.039Z,35.38
2023-06-28T19:09:45.634Z,35.24
2023-06-28T19:12:13.389Z,34.95
2023-06-28T19:14:41.468Z,35.53
2023-06-28T19:17:09.154Z,36.63
2023-06-28T19:19:36.916Z,37.02
2023-06-28T19:22:04.687Z,37.21
2023-06-28T19:24:33.578Z,36.79
2023-06-28T19:27:01.210Z,37.45
2023-06-28T19:29:28.846Z,37.65
2023-06-28T19:31:56.420Z,37.37
2023-06-28T19:34:24.162Z,36.60
2023-06-28T19:36:51.804Z,36.46
2023-06-28T19:39:19.887Z,36.19
2023-06-28T19:41:48.791Z,36.12
2023-06-28T19:44:16.795Z,37.96
2023-06-28T19:46:44.366Z,38.35
2023-06-28T19:49:11.984Z,39.05
2023-06-28T19:51:39.543Z,39.16
2023-06-28T19:54:07.206Z,39.22
2023-06-28T19:56:34.865Z,40.39
2023-06-28T19:59:03.812Z,39.88
2023-06-28T20:01:31.414Z,40.58
2023-06-28T20:03:59.007Z,40.54
2023-06-28T20:06:28.874Z,40.97
2023-06-28T20:09:00.036Z,40.43
2023-06-28T20:11:27.584Z,40.13
2023-06-28T20:13:55.246Z,40.05
2023-06-28T20:16:24.219Z,39.74
2023-06-28T20:18:51.860Z,39.14
2023-06-28T20:21:19.413Z,38.90
2023-06-28T20:23:47.040Z,38.68
2023-06-28T20:26:14.604Z,39.47
2023-06-28T20:28:42.409Z,39.90
2023-06-28T20:31:10.694Z,40.45
2023-06-28T20:33:39.806Z,40.39
2023-06-28T20:36:07.728Z,40.54
2023-06-28T20:38:35.319Z,40.54
2023-06-28T20:41:04.824Z,40.28
2023-06-28T20:43:35.792Z,38.59
2023-06-28T20:46:03.961Z,39.39
2023-06-28T20:48:33.154Z,39.87
2023-06-28T20:51:02.359Z,40.06
2023-06-28T20:53:30.708Z,41.04
2023-06-28T20:55:58.331Z,41.59
2023-06-28T20:58:25.928Z,41.82
2023-06-28T21:00:54.721Z,41.91
2023-06-28T21:03:22.353Z,42.19
2023-06-28T21:05:49.904Z,42.21
2023-06-28T21:08:18.965Z,42.83
2023-06-28T21:10:46.536Z,42.92
2023-06-28T21:13:14.125Z,43.14
2023-06-28T21:15:43.708Z,43.20
2023-06-28T21:18:12.033Z,43.31
2023-06-28T21:20:39.949Z,43.15
2023-06-28T21:23:07.574Z,43.30
2023-06-28T21:25:39.151Z,43.75
2023-06-28T21:28:07.158Z,43.87
2023-06-28T21:30:34.774Z,43.55
2023-06-28T21:33:02.387Z,43.34
2023-06-28T21:35:30.473Z,43.95
2023-06-28T21:37:58.070Z,44.13
2023-06-28T21:40:25.637Z,44.59
2023-06-28T21:42:54.631Z,44.56
2023-06-28T21:45:22.181Z,44.74
2023-06-28T21:47:49.923Z,44.49
2023-06-28T21:50:17.508Z,44.89
2023-06-28T21:52:45.076Z,45.35
2023-06-28T21:55:12.626Z,45.08
2023-06-28T21:57:40.246Z,45.23
2023-06-28T22:00:21.659Z,45.79
2023-06-28T22:02:49.296Z,45.91
2023-06-28T22:05:17.966Z,46.10
2023-06-28T22:07:45.765Z,46.20
2023-06-28T22:10:13.427Z,46.09
2023-06-28T22:12:41.163Z,46.32
2023-06-28T22:15:09.243Z,46.47
2023-06-28T22:17:38.630Z,46.31
2023-06-28T22:20:08.028Z,46.14
2023-06-28T22:22:35.693Z,46.00
2023-06-28T22:25:03.732Z,46.28
2023-06-28T22:27:31.417Z,46.22
2023-06-28T22:29:58.981Z,46.23
2023-06-28T22:32:26.625Z,46.58
2023-06-28T22:34:55.588Z,46.57
2023-06-28T22:37:23.165Z,46.25
2023-06-28T22:39:50.721Z,46.57
2023-06-28T22:42:18.809Z,47.33
2023-06-28T22:44:46.427Z,46.99
2023-06-28T22:47:14.092Z,47.07
2023-06-28T22:49:42.688Z,47.00
2023-06-28T22:52:11.663Z,47.29
2023-06-28T22:54:39.278Z,47.39
2023-06-28T22:57:06.913Z,47.34
2023-06-28T22:59:34.507Z,47.61
2023-06-28T23:02:02.110Z,47.71
2023-06-28T23:04:29.677Z,48.16
2023-06-28T23:06:57.506Z,48.10
2023-06-28T23:09:28.486Z,48.79
2023-06-28T23:11:58.711Z,48.92
2023-06-28T23:14:27.148Z,48.55
2023-06-28T23:16:55.875Z,48.50
2023-06-28T23:19:23.455Z,48.87
2023-06-28T23:21:50.998Z,48.73
2023-06-28T23:24:19.925Z,48.47
2023-06-28T23:26:49.827Z,49.05
2023-06-28T23:29:18.835Z,48.99
2023-06-28T23:31:46.445Z,49.07
2023-06-28T23:34:18.188Z,48.84
2023-06-28T23:36:49.951Z,49.37
2023-06-28T23:39:17.791Z,49.30
2023-06-28T23:41:45.330Z,49.58
2023-06-28T23:44:14.722Z,49.68
2023-06-28T23:46:44.667Z,49.94
2023-06-28T23:49:13.640Z,49.88
2023-06-28T23:51:41.724Z,49.90
2023-06-28T23:54:11.044Z,50.04
2023-06-28T23:56:40.273Z,49.55
2023-06-28T23:59:08.293Z,49.62
